sensor_id;sensor_type;location;lat;lon;timestamp;pressure;altitude;pressure_sealevel;temperature;humidity
74790;BME280;63318;52.406;13.416;2023-01-23T00:01:07;103094.33;;;1.88;86.88
74790;BME280;63318;52.406;13.416;2023-01-23T00:03:35;103093.00;;;1.88;86.69
74790;BME280;63318;52.406;13.416;2023-01-23T00:06:05;103095.27;;;1.89;86.63
74790;BME280;63318;52.406;13.416;2023-01-23T00:08:35;103102.89;;;1.90;86.71
74790;BME280;63318;52.406;13.416;2023-01-23T00:11:06;103103.30;;;1.90;86.64
74790;BME280;63318;52.406;13.416;2023-01-23T00:13:35;103096.65;;;1.89;86.64
74790;BME280;63318;52.406;13.416;2023-01-23T00:16:06;103099.30;;;1.87;86.63
74790;BME280;63318;52.406;13.416;2023-01-23T00:18:35;103105.54;;;1.87;86.79
74790;BME280;63318;52.406;13.416;2023-01-23T00:21:06;103106.73;;;1.88;86.73
74790;BME280;63318;52.406;13.416;2023-01-23T00:23:35;103107.02;;;1.89;86.62
74790;BME280;63318;52.406;13.416;2023-01-23T00:26:05;103108.29;;;1.89;86.99
74790;BME280;63318;52.406;13.416;2023-01-23T00:28:34;103105.75;;;1.89;86.74
74790;BME280;63318;52.406;13.416;2023-01-23T00:31:07;103100.74;;;1.88;86.52
74790;BME280;63318;52.406;13.416;2023-01-23T00:33:36;103095.47;;;1.88;86.74
74790;BME280;63318;52.406;13.416;2023-01-23T00:36:05;103098.77;;;1.89;86.93
74790;BME280;63318;52.406;13.416;2023-01-23T00:38:34;103100.58;;;1.89;86.81
74790;BME280;63318;52.406;13.416;2023-01-23T00:41:03;103101.36;;;1.89;86.61
74790;BME280;63318;52.406;13.416;2023-01-23T00:43:31;103098.02;;;1.89;86.83
74790;BME280;63318;52.406;13.416;2023-01-23T00:46:00;103102.65;;;1.89;86.72
74790;BME280;63318;52.406;13.416;2023-01-23T00:48:28;103106.15;;;1.88;86.63
74790;BME280;63318;52.406;13.416;2023-01-23T00:50:57;103105.52;;;1.89;86.71
74790;BME280;63318;52.406;13.416;2023-01-23T00:53:25;103111.98;;;1.90;86.95
74790;BME280;63318;52.406;13.416;2023-01-23T00:55:53;103113.99;;;1.90;86.85
74790;BME280;63318;52.406;13.416;2023-01-23T00:58:22;103112.17;;;1.90;86.97
74790;BME280;63318;52.406;13.416;2023-01-23T01:00:50;103110.83;;;1.91;86.77
74790;BME280;63318;52.406;13.416;2023-01-23T01:03:18;103113.16;;;1.91;86.75
74790;BME280;63318;52.406;13.416;2023-01-23T01:05:46;103120.13;;;1.91;86.80
74790;BME280;63318;52.406;13.416;2023-01-23T01:08:15;103124.30;;;1.91;86.73
74790;BME280;63318;52.406;13.416;2023-01-23T01:10:43;103129.35;;;1.90;86.75
74790;BME280;63318;52.406;13.416;2023-01-23T01:13:12;103129.08;;;1.88;86.77
74790;BME280;63318;52.406;13.416;2023-01-23T01:15:40;103130.12;;;1.86;86.89
74790;BME280;63318;52.406;13.416;2023-01-23T01:18:08;103134.37;;;1.86;86.55
74790;BME280;63318;52.406;13.416;2023-01-23T01:20:39;103132.84;;;1.87;86.81
74790;BME280;63318;52.406;13.416;2023-01-23T01:23:07;103137.94;;;1.87;86.56
74790;BME280;63318;52.406;13.416;2023-01-23T01:25:36;103136.67;;;1.87;86.76
74790;BME280;63318;52.406;13.416;2023-01-23T01:28:04;103138.94;;;1.88;87.01
74790;BME280;63318;52.406;13.416;2023-01-23T01:30:33;103138.50;;;1.88;86.86
74790;BME280;63318;52.406;13.416;2023-01-23T01:33:01;103136.29;;;1.88;86.84
74790;BME280;63318;52.406;13.416;2023-01-23T01:35:29;103144.59;;;1.88;86.69
74790;BME280;63318;52.406;13.416;2023-01-23T01:37:58;103154.00;;;1.87;86.50
74790;BME280;63318;52.406;13.416;2023-01-23T01:40:33;103156.25;;;1.86;86.77
74790;BME280;63318;52.406;13.416;2023-01-23T01:43:03;103158.89;;;1.86;86.69
74790;BME280;63318;52.406;13.416;2023-01-23T01:48:36;103164.30;;;1.83;86.70
74790;BME280;63318;52.406;13.416;2023-01-23T01:51:11;103164.64;;;1.81;86.83
74790;BME280;63318;52.406;13.416;2023-01-23T01:53:43;103166.16;;;1.81;86.71
74790;BME280;63318;52.406;13.416;2023-01-23T01:56:13;103165.61;;;1.81;86.89
74790;BME280;63318;52.406;13.416;2023-01-23T01:58:46;103164.29;;;1.81;86.78
74790;BME280;63318;52.406;13.416;2023-01-23T02:01:16;103162.58;;;1.82;87.13
74790;BME280;63318;52.406;13.416;2023-01-23T02:03:46;103164.28;;;1.83;87.08
74790;BME280;63318;52.406;13.416;2023-01-23T02:06:16;103164.93;;;1.84;86.89
74790;BME280;63318;52.406;13.416;2023-01-23T02:08:48;103163.60;;;1.84;86.85
74790;BME280;63318;52.406;13.416;2023-01-23T02:11:18;103165.85;;;1.84;86.80
74790;BME280;63318;52.406;13.416;2023-01-23T02:13:47;103167.46;;;1.84;86.73
74790;BME280;63318;52.406;13.416;2023-01-23T02:16:18;103164.27;;;1.83;87.15
74790;BME280;63318;52.406;13.416;2023-01-23T02:18:50;103163.09;;;1.82;86.94
74790;BME280;63318;52.406;13.416;2023-01-23T02:21:21;103164.39;;;1.82;86.90
74790;BME280;63318;52.406;13.416;2023-01-23T02:24:02;103166.19;;;1.82;86.81
74790;BME280;63318;52.406;13.416;2023-01-23T02:26:35;103165.56;;;1.83;86.93
74790;BME280;63318;52.406;13.416;2023-01-23T02:29:05;103162.09;;;1.83;86.75
74790;BME280;63318;52.406;13.416;2023-01-23T02:31:33;103160.45;;;1.83;86.79
74790;BME280;63318;52.406;13.416;2023-01-23T02:34:03;103159.02;;;1.83;86.77
74790;BME280;63318;52.406;13.416;2023-01-23T02:36:33;103163.77;;;1.83;86.97
74790;BME280;63318;52.406;13.416;2023-01-23T02:39:06;103164.83;;;1.83;86.84
74790;BME280;63318;52.406;13.416;2023-01-23T02:41:37;103166.81;;;1.83;87.06
74790;BME280;63318;52.406;13.416;2023-01-23T02:44:10;103170.48;;;1.85;86.61
74790;BME280;63318;52.406;13.416;2023-01-23T02:46:39;103173.96;;;1.86;86.89
74790;BME280;63318;52.406;13.416;2023-01-23T02:49:08;103178.63;;;1.87;86.60
74790;BME280;63318;52.406;13.416;2023-01-23T02:51:36;103178.77;;;1.88;86.86
74790;BME280;63318;52.406;13.416;2023-01-23T02:54:05;103183.27;;;1.88;86.94
74790;BME280;63318;52.406;13.416;2023-01-23T02:56:33;103187.51;;;1.88;86.69
74790;BME280;63318;52.406;13.416;2023-01-23T02:59:01;103194.68;;;1.89;86.53
74790;BME280;63318;52.406;13.416;2023-01-23T03:01:29;103191.70;;;1.90;86.64
74790;BME280;63318;52.406;13.416;2023-01-23T03:03:57;103193.43;;;1.90;86.86
74790;BME280;63318;52.406;13.416;2023-01-23T03:06:26;103198.18;;;1.91;86.70
74790;BME280;63318;52.406;13.416;2023-01-23T03:08:54;103202.89;;;1.91;86.82
74790;BME280;63318;52.406;13.416;2023-01-23T03:11:22;103205.63;;;1.91;86.89
74790;BME280;63318;52.406;13.416;2023-01-23T03:13:50;103205.29;;;1.91;86.88
74790;BME280;63318;52.406;13.416;2023-01-23T03:16:18;103202.10;;;1.90;86.75
74790;BME280;63318;52.406;13.416;2023-01-23T03:18:46;103204.31;;;1.90;86.65
74790;BME280;63318;52.406;13.416;2023-01-23T03:21:15;103203.97;;;1.89;86.61
74790;BME280;63318;52.406;13.416;2023-01-23T03:23:43;103206.83;;;1.90;86.66
74790;BME280;63318;52.406;13.416;2023-01-23T03:26:11;103208.54;;;1.91;86.80
74790;BME280;63318;52.406;13.416;2023-01-23T03:28:39;103207.64;;;1.91;86.88
74790;BME280;63318;52.406;13.416;2023-01-23T03:31:07;103209.63;;;1.89;86.48
74790;BME280;63318;52.406;13.416;2023-01-23T03:33:36;103209.64;;;1.89;86.69
74790;BME280;63318;52.406;13.416;2023-01-23T03:36:04;103214.20;;;1.89;86.48
74790;BME280;63318;52.406;13.416;2023-01-23T03:38:33;103219.14;;;1.89;86.57
74790;BME280;63318;52.406;13.416;2023-01-23T03:41:01;103220.98;;;1.89;86.58
74790;BME280;63318;52.406;13.416;2023-01-23T03:43:32;103224.22;;;1.90;86.77
74790;BME280;63318;52.406;13.416;2023-01-23T03:46:00;103227.61;;;1.90;86.69
74790;BME280;63318;52.406;13.416;2023-01-23T03:48:29;103228.65;;;1.91;86.68
74790;BME280;63318;52.406;13.416;2023-01-23T03:50:57;103229.90;;;1.91;86.66
74790;BME280;63318;52.406;13.416;2023-01-23T03:53:26;103231.00;;;1.91;86.86
74790;BME280;63318;52.406;13.416;2023-01-23T03:55:54;103232.45;;;1.91;86.50
74790;BME280;63318;52.406;13.416;2023-01-23T03:58:22;103235.39;;;1.90;86.59
74790;BME280;63318;52.406;13.416;2023-01-23T04:00:51;103239.55;;;1.88;86.82
74790;BME280;63318;52.406;13.416;2023-01-23T04:03:19;103238.36;;;1.87;86.51
74790;BME280;63318;52.406;13.416;2023-01-23T04:05:47;103243.91;;;1.87;86.56
74790;BME280;63318;52.406;13.416;2023-01-23T04:08:15;103243.00;;;1.86;86.61
74790;BME280;63318;52.406;13.416;2023-01-23T04:10:43;103241.52;;;1.87;86.46
74790;BME280;63318;52.406;13.416;2023-01-23T04:13:12;103238.98;;;1.87;86.39
74790;BME280;63318;52.406;13.416;2023-01-23T04:15:40;103244.84;;;1.86;86.52
74790;BME280;63318;52.406;13.416;2023-01-23T04:18:08;103249.55;;;1.85;86.64
74790;BME280;63318;52.406;13.416;2023-01-23T04:20:36;103249.75;;;1.85;86.72
74790;BME280;63318;52.406;13.416;2023-01-23T04:23:05;103255.01;;;1.85;86.66
74790;BME280;63318;52.406;13.416;2023-01-23T04:25:33;103257.13;;;1.86;86.88
74790;BME280;63318;52.406;13.416;2023-01-23T04:28:01;103255.52;;;1.86;86.67
74790;BME280;63318;52.406;13.416;2023-01-23T04:30:29;103256.31;;;1.87;86.42
74790;BME280;63318;52.406;13.416;2023-01-23T04:32:57;103254.96;;;1.88;86.49
74790;BME280;63318;52.406;13.416;2023-01-23T04:35:26;103253.76;;;1.88;86.73
74790;BME280;63318;52.406;13.416;2023-01-23T04:37:54;103252.00;;;1.90;86.61
74790;BME280;63318;52.406;13.416;2023-01-23T04:40:22;103255.88;;;1.91;86.60
74790;BME280;63318;52.406;13.416;2023-01-23T04:42:50;103253.63;;;1.92;86.39
74790;BME280;63318;52.406;13.416;2023-01-23T04:45:18;103255.45;;;1.92;86.60
74790;BME280;63318;52.406;13.416;2023-01-23T04:47:46;103255.69;;;1.93;86.58
74790;BME280;63318;52.406;13.416;2023-01-23T04:50:15;103261.08;;;1.94;86.27
74790;BME280;63318;52.406;13.416;2023-01-23T04:52:43;103265.52;;;1.93;86.24
74790;BME280;63318;52.406;13.416;2023-01-23T04:55:11;103270.48;;;1.93;86.63
74790;BME280;63318;52.406;13.416;2023-01-23T04:57:40;103271.95;;;1.93;86.54
74790;BME280;63318;52.406;13.416;2023-01-23T05:00:13;103275.77;;;1.93;86.24
74790;BME280;63318;52.406;13.416;2023-01-23T05:02:41;103275.21;;;1.93;86.61
74790;BME280;63318;52.406;13.416;2023-01-23T05:05:12;103274.04;;;1.92;86.38
74790;BME280;63318;52.406;13.416;2023-01-23T05:07:40;103271.49;;;1.90;86.78
74790;BME280;63318;52.406;13.416;2023-01-23T05:10:10;103272.36;;;1.89;86.43
74790;BME280;63318;52.406;13.416;2023-01-23T05:12:38;103274.95;;;1.87;86.26
74790;BME280;63318;52.406;13.416;2023-01-23T05:15:08;103266.89;;;1.85;86.65
74790;BME280;63318;52.406;13.416;2023-01-23T05:17:37;103264.16;;;1.85;86.50
74790;BME280;63318;52.406;13.416;2023-01-23T05:20:07;103258.55;;;1.85;86.55
74790;BME280;63318;52.406;13.416;2023-01-23T05:22:35;103262.36;;;1.85;86.29
74790;BME280;63318;52.406;13.416;2023-01-23T05:25:04;103265.83;;;1.85;86.35
74790;BME280;63318;52.406;13.416;2023-01-23T05:27:33;103271.39;;;1.84;86.47
74790;BME280;63318;52.406;13.416;2023-01-23T05:30:01;103265.36;;;1.84;86.41
74790;BME280;63318;52.406;13.416;2023-01-23T05:32:29;103264.44;;;1.84;86.58
74790;BME280;63318;52.406;13.416;2023-01-23T05:34:57;103265.27;;;1.83;86.39
74790;BME280;63318;52.406;13.416;2023-01-23T05:37:26;103269.23;;;1.84;86.67
74790;BME280;63318;52.406;13.416;2023-01-23T05:39:56;103272.82;;;1.83;86.83
74790;BME280;63318;52.406;13.416;2023-01-23T05:42:24;103273.08;;;1.82;86.31
74790;BME280;63318;52.406;13.416;2023-01-23T05:44:52;103273.90;;;1.81;86.27
74790;BME280;63318;52.406;13.416;2023-01-23T05:47:21;103271.80;;;1.80;86.71
74790;BME280;63318;52.406;13.416;2023-01-23T05:49:49;103273.67;;;1.80;86.69
74790;BME280;63318;52.406;13.416;2023-01-23T05:52:17;103274.08;;;1.79;86.83
74790;BME280;63318;52.406;13.416;2023-01-23T05:54:45;103281.95;;;1.79;86.50
74790;BME280;63318;52.406;13.416;2023-01-23T05:57:13;103286.98;;;1.78;86.71
74790;BME280;63318;52.406;13.416;2023-01-23T05:59:42;103288.48;;;1.78;86.46
74790;BME280;63318;52.406;13.416;2023-01-23T06:02:10;103290.70;;;1.77;86.56
74790;BME280;63318;52.406;13.416;2023-01-23T06:04:38;103296.21;;;1.77;86.43
74790;BME280;63318;52.406;13.416;2023-01-23T06:07:08;103299.64;;;1.76;86.82
74790;BME280;63318;52.406;13.416;2023-01-23T06:09:40;103304.61;;;1.75;86.52
74790;BME280;63318;52.406;13.416;2023-01-23T06:12:09;103306.11;;;1.75;86.47
74790;BME280;63318;52.406;13.416;2023-01-23T06:14:37;103307.34;;;1.76;86.40
74790;BME280;63318;52.406;13.416;2023-01-23T06:17:06;103310.17;;;1.77;86.60
74790;BME280;63318;52.406;13.416;2023-01-23T06:19:34;103316.14;;;1.77;86.89
74790;BME280;63318;52.406;13.416;2023-01-23T06:22:03;103315.73;;;1.77;86.68
74790;BME280;63318;52.406;13.416;2023-01-23T06:24:31;103319.28;;;1.79;86.55
74790;BME280;63318;52.406;13.416;2023-01-23T06:26:59;103316.91;;;1.78;86.70
74790;BME280;63318;52.406;13.416;2023-01-23T06:29:28;103315.28;;;1.78;86.69
74790;BME280;63318;52.406;13.416;2023-01-23T06:31:57;103313.66;;;1.78;86.49
74790;BME280;63318;52.406;13.416;2023-01-23T06:34:25;103317.30;;;1.78;86.71
74790;BME280;63318;52.406;13.416;2023-01-23T06:36:53;103322.53;;;1.79;86.48
74790;BME280;63318;52.406;13.416;2023-01-23T06:39:22;103323.77;;;1.79;86.55
74790;BME280;63318;52.406;13.416;2023-01-23T06:41:50;103326.86;;;1.79;86.49
74790;BME280;63318;52.406;13.416;2023-01-23T06:44:18;103332.83;;;1.80;86.57
74790;BME280;63318;52.406;13.416;2023-01-23T06:46:46;103332.45;;;1.80;86.58
74790;BME280;63318;52.406;13.416;2023-01-23T06:49:15;103342.23;;;1.81;86.40
74790;BME280;63318;52.406;13.416;2023-01-23T06:51:43;103346.02;;;1.81;86.59
74790;BME280;63318;52.406;13.416;2023-01-23T06:54:11;103348.90;;;1.80;86.38
74790;BME280;63318;52.406;13.416;2023-01-23T06:56:39;103349.64;;;1.80;86.67
74790;BME280;63318;52.406;13.416;2023-01-23T06:59:07;103348.40;;;1.80;86.29
74790;BME280;63318;52.406;13.416;2023-01-23T07:01:36;103340.96;;;1.79;86.48
74790;BME280;63318;52.406;13.416;2023-01-23T07:04:04;103339.00;;;1.78;86.56
74790;BME280;63318;52.406;13.416;2023-01-23T07:06:32;103339.05;;;1.76;86.18
74790;BME280;63318;52.406;13.416;2023-01-23T07:09:01;103341.54;;;1.75;86.44
74790;BME280;63318;52.406;13.416;2023-01-23T07:11:29;103344.61;;;1.74;86.41
74790;BME280;63318;52.406;13.416;2023-01-23T07:13:57;103341.47;;;1.72;86.29
74790;BME280;63318;52.406;13.416;2023-01-23T07:16:26;103348.14;;;1.71;86.52
74790;BME280;63318;52.406;13.416;2023-01-23T07:18:55;103352.18;;;1.71;86.26
74790;BME280;63318;52.406;13.416;2023-01-23T07:21:23;103354.16;;;1.71;86.36
74790;BME280;63318;52.406;13.416;2023-01-23T07:23:51;103357.45;;;1.71;86.49
74790;BME280;63318;52.406;13.416;2023-01-23T07:26:20;103357.83;;;1.71;86.59
74790;BME280;63318;52.406;13.416;2023-01-23T07:28:48;103357.22;;;1.72;86.43
74790;BME280;63318;52.406;13.416;2023-01-23T07:31:16;103356.91;;;1.72;86.58
74790;BME280;63318;52.406;13.416;2023-01-23T07:33:44;103361.23;;;1.70;86.50
74790;BME280;63318;52.406;13.416;2023-01-23T07:36:13;103365.98;;;1.70;86.62
74790;BME280;63318;52.406;13.416;2023-01-23T07:38:42;103364.74;;;1.70;86.25
74790;BME280;63318;52.406;13.416;2023-01-23T07:41:10;103360.16;;;1.70;86.31
74790;BME280;63318;52.406;13.416;2023-01-23T07:43:39;103357.89;;;1.71;86.12
74790;BME280;63318;52.406;13.416;2023-01-23T07:46:07;103361.46;;;1.71;86.32
74790;BME280;63318;52.406;13.416;2023-01-23T07:48:36;103360.46;;;1.72;86.50
74790;BME280;63318;52.406;13.416;2023-01-23T07:51:05;103361.36;;;1.72;86.57
74790;BME280;63318;52.406;13.416;2023-01-23T07:53:34;103365.36;;;1.72;86.26
74790;BME280;63318;52.406;13.416;2023-01-23T07:56:06;103369.52;;;1.73;86.35
74790;BME280;63318;52.406;13.416;2023-01-23T07:58:35;103369.20;;;1.72;86.35
74790;BME280;63318;52.406;13.416;2023-01-23T08:01:09;103367.53;;;1.73;86.39
74790;BME280;63318;52.406;13.416;2023-01-23T08:03:38;103370.25;;;1.73;86.62
74790;BME280;63318;52.406;13.416;2023-01-23T08:06:07;103375.17;;;1.73;86.33
74790;BME280;63318;52.406;13.416;2023-01-23T08:08:35;103373.88;;;1.73;86.63
74790;BME280;63318;52.406;13.416;2023-01-23T08:11:06;103373.09;;;1.74;86.34
74790;BME280;63318;52.406;13.416;2023-01-23T08:13:34;103375.45;;;1.76;86.25
74790;BME280;63318;52.406;13.416;2023-01-23T08:16:04;103378.80;;;1.75;86.24
74790;BME280;63318;52.406;13.416;2023-01-23T08:18:33;103378.73;;;1.76;86.40
74790;BME280;63318;52.406;13.416;2023-01-23T08:21:02;103382.48;;;1.77;86.35
74790;BME280;63318;52.406;13.416;2023-01-23T08:23:32;103383.13;;;1.78;86.64
74790;BME280;63318;52.406;13.416;2023-01-23T08:26:03;103388.45;;;1.77;86.35
74790;BME280;63318;52.406;13.416;2023-01-23T08:28:32;103389.52;;;1.78;86.44
74790;BME280;63318;52.406;13.416;2023-01-23T08:31:02;103393.09;;;1.78;86.39
74790;BME280;63318;52.406;13.416;2023-01-23T08:33:31;103396.77;;;1.78;86.29
74790;BME280;63318;52.406;13.416;2023-01-23T08:36:00;103398.48;;;1.77;86.65
74790;BME280;63318;52.406;13.416;2023-01-23T08:38:28;103405.95;;;1.77;86.21
74790;BME280;63318;52.406;13.416;2023-01-23T08:40:59;103406.52;;;1.77;86.43
74790;BME280;63318;52.406;13.416;2023-01-23T08:43:28;103413.60;;;1.78;86.21
74790;BME280;63318;52.406;13.416;2023-01-23T08:45:58;103419.19;;;1.78;86.36
74790;BME280;63318;52.406;13.416;2023-01-23T08:48:27;103422.61;;;1.79;86.54
74790;BME280;63318;52.406;13.416;2023-01-23T08:51:01;103424.44;;;1.79;86.65
74790;BME280;63318;52.406;13.416;2023-01-23T08:53:31;103425.17;;;1.81;86.58
74790;BME280;63318;52.406;13.416;2023-01-23T08:56:04;103430.68;;;1.82;86.07
74790;BME280;63318;52.406;13.416;2023-01-23T08:58:33;103431.58;;;1.83;86.40
74790;BME280;63318;52.406;13.416;2023-01-23T09:01:02;103432.06;;;1.83;86.40
74790;BME280;63318;52.406;13.416;2023-01-23T09:03:31;103436.72;;;1.84;86.56
74790;BME280;63318;52.406;13.416;2023-01-23T09:06:02;103435.78;;;1.84;86.32
74790;BME280;63318;52.406;13.416;2023-01-23T09:08:30;103441.89;;;1.85;86.40
74790;BME280;63318;52.406;13.416;2023-01-23T09:11:01;103448.28;;;1.87;86.30
74790;BME280;63318;52.406;13.416;2023-01-23T09:13:31;103456.27;;;1.88;86.09
74790;BME280;63318;52.406;13.416;2023-01-23T09:16:00;103462.61;;;1.88;86.33
74790;BME280;63318;52.406;13.416;2023-01-23T09:18:29;103465.59;;;1.89;86.32
74790;BME280;63318;52.406;13.416;2023-01-23T09:20:57;103469.85;;;1.91;86.27
74790;BME280;63318;52.406;13.416;2023-01-23T09:23:25;103469.96;;;1.91;86.18
74790;BME280;63318;52.406;13.416;2023-01-23T09:25:54;103471.58;;;1.93;86.21
74790;BME280;63318;52.406;13.416;2023-01-23T09:28:22;103474.77;;;1.95;86.07
74790;BME280;63318;52.406;13.416;2023-01-23T09:30:50;103477.06;;;1.95;86.17
74790;BME280;63318;52.406;13.416;2023-01-23T09:33:19;103482.05;;;1.97;86.30
74790;BME280;63318;52.406;13.416;2023-01-23T09:35:51;103485.73;;;1.98;86.11
74790;BME280;63318;52.406;13.416;2023-01-23T09:38:20;103489.15;;;1.99;86.18
74790;BME280;63318;52.406;13.416;2023-01-23T09:40:50;103492.20;;;1.99;86.31
74790;BME280;63318;52.406;13.416;2023-01-23T09:43:23;103489.73;;;2.00;86.16
74790;BME280;63318;52.406;13.416;2023-01-23T09:46:00;103490.72;;;2.01;85.99
74790;BME280;63318;52.406;13.416;2023-01-23T09:48:33;103486.73;;;2.03;86.00
74790;BME280;63318;52.406;13.416;2023-01-23T09:51:09;103485.58;;;2.03;85.87
74790;BME280;63318;52.406;13.416;2023-01-23T09:53:41;103483.23;;;2.05;86.20
74790;BME280;63318;52.406;13.416;2023-01-23T09:56:18;103485.13;;;2.06;86.03
74790;BME280;63318;52.406;13.416;2023-01-23T09:58:55;103480.84;;;2.07;85.83
74790;BME280;63318;52.406;13.416;2023-01-23T10:01:26;103489.51;;;2.08;86.01
74790;BME280;63318;52.406;13.416;2023-01-23T10:03:56;103491.75;;;2.09;86.18
74790;BME280;63318;52.406;13.416;2023-01-23T10:06:27;103485.85;;;2.12;86.01
74790;BME280;63318;52.406;13.416;2023-01-23T10:11:56;103487.30;;;2.16;85.89
74790;BME280;63318;52.406;13.416;2023-01-23T10:14:44;103491.28;;;2.18;85.91
74790;BME280;63318;52.406;13.416;2023-01-23T10:17:23;103491.86;;;2.19;86.03
74790;BME280;63318;52.406;13.416;2023-01-23T10:20:15;103487.89;;;2.21;86.00
74790;BME280;63318;52.406;13.416;2023-01-23T10:22:49;103487.85;;;2.21;85.86
74790;BME280;63318;52.406;13.416;2023-01-23T10:25:23;103488.89;;;2.22;85.64
74790;BME280;63318;52.406;13.416;2023-01-23T10:27:59;103494.05;;;2.23;85.97
74790;BME280;63318;52.406;13.416;2023-01-23T10:30:30;103495.02;;;2.24;85.52
74790;BME280;63318;52.406;13.416;2023-01-23T10:33:00;103495.22;;;2.24;85.74
74790;BME280;63318;52.406;13.416;2023-01-23T10:35:33;103494.30;;;2.24;85.72
74790;BME280;63318;52.406;13.416;2023-01-23T10:38:09;103499.00;;;2.25;85.45
74790;BME280;63318;52.406;13.416;2023-01-23T10:40:39;103499.52;;;2.25;85.48
74790;BME280;63318;52.406;13.416;2023-01-23T10:43:13;103501.23;;;2.26;85.55
74790;BME280;63318;52.406;13.416;2023-01-23T10:45:43;103500.77;;;2.27;85.77
74790;BME280;63318;52.406;13.416;2023-01-23T10:48:40;103497.55;;;2.28;85.62
74790;BME280;63318;52.406;13.416;2023-01-23T10:51:24;103494.06;;;2.30;85.65
74790;BME280;63318;52.406;13.416;2023-01-23T10:54:09;103496.11;;;2.31;85.59
74790;BME280;63318;52.406;13.416;2023-01-23T10:56:47;103492.27;;;2.32;85.49
74790;BME280;63318;52.406;13.416;2023-01-23T10:59:23;103487.39;;;2.33;85.84
74790;BME280;63318;52.406;13.416;2023-01-23T11:02:02;103489.09;;;2.34;85.54
74790;BME280;63318;52.406;13.416;2023-01-23T11:04:35;103488.70;;;2.36;85.39
74790;BME280;63318;52.406;13.416;2023-01-23T11:07:09;103491.23;;;2.36;85.09
74790;BME280;63318;52.406;13.416;2023-01-23T11:09:49;103492.02;;;2.37;85.60
74790;BME280;63318;52.406;13.416;2023-01-23T11:12:20;103490.48;;;2.38;85.51
74790;BME280;63318;52.406;13.416;2023-01-23T11:14:48;103492.28;;;2.40;85.26
74790;BME280;63318;52.406;13.416;2023-01-23T11:17:23;103488.75;;;2.41;85.18
74790;BME280;63318;52.406;13.416;2023-01-23T11:19:52;103483.23;;;2.41;85.42
74790;BME280;63318;52.406;13.416;2023-01-23T11:22:32;103479.58;;;2.41;85.32
74790;BME280;63318;52.406;13.416;2023-01-23T11:25:26;103481.67;;;2.42;85.40
74790;BME280;63318;52.406;13.416;2023-01-23T11:27:59;103475.17;;;2.43;84.92
74790;BME280;63318;52.406;13.416;2023-01-23T11:30:42;103471.23;;;2.44;85.15
74790;BME280;63318;52.406;13.416;2023-01-23T11:33:21;103469.77;;;2.46;85.19
74790;BME280;63318;52.406;13.416;2023-01-23T11:36:01;103473.20;;;2.46;85.21
74790;BME280;63318;52.406;13.416;2023-01-23T11:38:36;103469.78;;;2.46;85.07
74790;BME280;63318;52.406;13.416;2023-01-23T11:41:09;103466.80;;;2.47;84.86
74790;BME280;63318;52.406;13.416;2023-01-23T11:43:38;103466.70;;;2.47;84.83
74790;BME280;63318;52.406;13.416;2023-01-23T11:46:23;103465.84;;;2.47;85.20
74790;BME280;63318;52.406;13.416;2023-01-23T11:49:15;103466.48;;;2.48;85.01
74790;BME280;63318;52.406;13.416;2023-01-23T11:51:53;103469.98;;;2.49;84.76
74790;BME280;63318;52.406;13.416;2023-01-23T11:54:39;103466.94;;;2.51;84.89
74790;BME280;63318;52.406;13.416;2023-01-23T11:57:20;103464.45;;;2.53;85.12
74790;BME280;63318;52.406;13.416;2023-01-23T12:00:20;103465.39;;;2.55;84.69
74790;BME280;63318;52.406;13.416;2023-01-23T12:03:15;103458.11;;;2.54;85.10
74790;BME280;63318;52.406;13.416;2023-01-23T12:06:15;103459.57;;;2.53;84.80
74790;BME280;63318;52.406;13.416;2023-01-23T12:08:52;103457.34;;;2.53;84.78
74790;BME280;63318;52.406;13.416;2023-01-23T12:11:22;103454.23;;;2.53;84.87
74790;BME280;63318;52.406;13.416;2023-01-23T12:14:09;103448.60;;;2.53;84.78
74790;BME280;63318;52.406;13.416;2023-01-23T12:16:51;103443.96;;;2.52;84.56
74790;BME280;63318;52.406;13.416;2023-01-23T12:19:31;103440.37;;;2.53;84.74
74790;BME280;63318;52.406;13.416;2023-01-23T12:22:11;103440.98;;;2.56;84.61
74790;BME280;63318;52.406;13.416;2023-01-23T12:24:53;103442.42;;;2.56;84.46
74790;BME280;63318;52.406;13.416;2023-01-23T12:27:33;103443.40;;;2.57;84.47
74790;BME280;63318;52.406;13.416;2023-01-23T12:30:17;103444.06;;;2.58;84.67
74790;BME280;63318;52.406;13.416;2023-01-23T12:32:59;103443.11;;;2.58;84.33
74790;BME280;63318;52.406;13.416;2023-01-23T12:35:45;103442.48;;;2.61;84.76
74790;BME280;63318;52.406;13.416;2023-01-23T12:38:27;103442.02;;;2.63;84.61
74790;BME280;63318;52.406;13.416;2023-01-23T12:41:08;103442.32;;;2.66;84.67
74790;BME280;63318;52.406;13.416;2023-01-23T12:43:44;103438.84;;;2.67;84.49
74790;BME280;63318;52.406;13.416;2023-01-23T12:46:18;103438.31;;;2.69;84.25
74790;BME280;63318;52.406;13.416;2023-01-23T12:48:52;103433.44;;;2.70;84.46
74790;BME280;63318;52.406;13.416;2023-01-23T12:51:26;103428.23;;;2.71;84.23
74790;BME280;63318;52.406;13.416;2023-01-23T12:53:59;103431.54;;;2.71;84.25
74790;BME280;63318;52.406;13.416;2023-01-23T12:56:30;103427.20;;;2.70;84.13
74790;BME280;63318;52.406;13.416;2023-01-23T12:59:07;103425.76;;;2.70;84.04
74790;BME280;63318;52.406;13.416;2023-01-23T13:01:54;103424.43;;;2.70;83.80
74790;BME280;63318;52.406;13.416;2023-01-23T13:04:34;103426.08;;;2.70;83.78
74790;BME280;63318;52.406;13.416;2023-01-23T13:07:24;103426.87;;;2.72;83.79
74790;BME280;63318;52.406;13.416;2023-01-23T13:10:10;103431.73;;;2.72;84.02
74790;BME280;63318;52.406;13.416;2023-01-23T13:12:43;103438.19;;;2.74;83.84
74790;BME280;63318;52.406;13.416;2023-01-23T13:15:33;103442.23;;;2.74;83.78
74790;BME280;63318;52.406;13.416;2023-01-23T13:18:02;103443.88;;;2.73;83.80